sensor_id;sensor_type;location;lat;lon;timestamp;temperature;humidity
13332;DHT22;6735;51.456;12.626;2023-08-30T00:00:54;15.30;87.80
13332;DHT22;6735;51.456;12.626;2023-08-30T00:03:20;15.30;87.80
13332;DHT22;6735;51.456;12.626;2023-08-30T00:05:45;15.30;87.90
13332;DHT22;6735;51.456;12.626;2023-08-30T00:08:11;15.30;87.90
13332;DHT22;6735;51.456;12.626;2023-08-30T00:10:38;15.30;87.90
13332;DHT22;6735;51.456;12.626;2023-08-30T00:13:04;15.30;87.90
13332;DHT22;6735;51.456;12.626;2023-08-30T00:15:29;15.30;87.90
13332;DHT22;6735;51.456;12.626;2023-08-30T00:17:55;15.30;87.80
13332;DHT22;6735;51.456;12.626;2023-08-30T00:20:21;15.30;87.90
13332;DHT22;6735;51.456;12.626;2023-08-30T00:22:47;15.30;87.90
13332;DHT22;6735;51.456;12.626;2023-08-30T00:25:16;15.30;87.90
13332;DHT22;6735;51.456;12.626;2023-08-30T00:27:41;15.30;87.90
13332;DHT22;6735;51.456;12.626;2023-08-30T00:30:07;15.30;87.90
13332;DHT22;6735;51.456;12.626;2023-08-30T00:32:34;15.20;87.90
13332;DHT22;6735;51.456;12.626;2023-08-30T00:35:00;15.20;88.00
13332;DHT22;6735;51.456;12.626;2023-08-30T00:37:25;15.20;88.00
13332;DHT22;6735;51.456;12.626;2023-08-30T00:39:51;15.20;88.00
13332;DHT22;6735;51.456;12.626;2023-08-30T00:42:16;15.20;88.00
13332;DHT22;6735;51.456;12.626;2023-08-30T00:44:42;15.20;88.00
13332;DHT22;6735;51.456;12.626;2023-08-30T00:47:07;15.20;88.00
13332;DHT22;6735;51.456;12.626;2023-08-30T00:49:33;15.20;88.00
13332;DHT22;6735;51.456;12.626;2023-08-30T00:52:02;15.20;87.90
13332;DHT22;6735;51.456;12.626;2023-08-30T00:54:27;15.20;87.90
13332;DHT22;6735;51.456;12.626;2023-08-30T00:56:54;15.20;88.00
13332;DHT22;6735;51.456;12.626;2023-08-30T00:59:20;15.20;88.00
13332;DHT22;6735;51.456;12.626;2023-08-30T01:01:47;15.20;87.90
13332;DHT22;6735;51.456;12.626;2023-08-30T01:04:13;15.20;88.00
13332;DHT22;6735;51.456;12.626;2023-08-30T01:06:39;15.20;87.90
13332;DHT22;6735;51.456;12.626;2023-08-30T01:09:05;15.20;87.90
13332;DHT22;6735;51.456;12.626;2023-08-30T01:11:43;15.10;88.00
13332;DHT22;6735;51.456;12.626;2023-08-30T01:14:15;15.20;88.00
13332;DHT22;6735;51.456;12.626;2023-08-30T01:16:44;15.20;88.00
13332;DHT22;6735;51.456;12.626;2023-08-30T01:19:26;15.20;88.10
13332;DHT22;6735;51.456;12.626;2023-08-30T01:22:02;15.20;88.00
13332;DHT22;6735;51.456;12.626;2023-08-30T01:24:37;15.10;88.00
13332;DHT22;6735;51.456;12.626;2023-08-30T01:27:08;15.20;88.00
13332;DHT22;6735;51.456;12.626;2023-08-30T01:29:37;15.20;88.00
13332;DHT22;6735;51.456;12.626;2023-08-30T01:32:08;15.20;88.10
13332;DHT22;6735;51.456;12.626;2023-08-30T01:34:34;15.20;88.00
13332;DHT22;6735;51.456;12.626;2023-08-30T01:37:00;15.20;88.00
13332;DHT22;6735;51.456;12.626;2023-08-30T01:39:27;15.10;88.00
13332;DHT22;6735;51.456;12.626;2023-08-30T01:41:54;15.20;88.00
13332;DHT22;6735;51.456;12.626;2023-08-30T01:44:26;15.20;88.00
13332;DHT22;6735;51.456;12.626;2023-08-30T01:46:52;15.10;88.00
13332;DHT22;6735;51.456;12.626;2023-08-30T01:49:18;15.10;88.00
13332;DHT22;6735;51.456;12.626;2023-08-30T01:51:44;15.10;88.00
13332;DHT22;6735;51.456;12.626;2023-08-30T01:54:10;15.10;88.10
13332;DHT22;6735;51.456;12.626;2023-08-30T01:56:38;15.10;88.10
13332;DHT22;6735;51.456;12.626;2023-08-30T01:59:04;15.10;88.10
13332;DHT22;6735;51.456;12.626;2023-08-30T02:01:29;15.10;88.10
13332;DHT22;6735;51.456;12.626;2023-08-30T02:03:55;15.10;88.10
13332;DHT22;6735;51.456;12.626;2023-08-30T02:06:30;15.10;88.10
13332;DHT22;6735;51.456;12.626;2023-08-30T02:09:04;15.10;88.10
13332;DHT22;6735;51.456;12.626;2023-08-30T02:11:34;15.10;88.10
13332;DHT22;6735;51.456;12.626;2023-08-30T02:14:01;15.10;88.30
13332;DHT22;6735;51.456;12.626;2023-08-30T02:16:28;15.10;88.30
13332;DHT22;6735;51.456;12.626;2023-08-30T02:18:55;15.10;88.30
13332;DHT22;6735;51.456;12.626;2023-08-30T02:21:21;15.10;88.30
13332;DHT22;6735;51.456;12.626;2023-08-30T02:23:52;15.20;88.30
13332;DHT22;6735;51.456;12.626;2023-08-30T02:26:19;15.20;88.30
13332;DHT22;6735;51.456;12.626;2023-08-30T02:28:45;15.20;88.30
13332;DHT22;6735;51.456;12.626;2023-08-30T02:31:10;15.20;88.40
13332;DHT22;6735;51.456;12.626;2023-08-30T02:33:36;15.20;88.30
13332;DHT22;6735;51.456;12.626;2023-08-30T02:36:03;15.20;88.40
13332;DHT22;6735;51.456;12.626;2023-08-30T02:38:28;15.20;88.40
13332;DHT22;6735;51.456;12.626;2023-08-30T02:40:54;15.20;88.40
13332;DHT22;6735;51.456;12.626;2023-08-30T02:43:19;15.20;88.40
13332;DHT22;6735;51.456;12.626;2023-08-30T02:45:45;15.20;88.40
13332;DHT22;6735;51.456;12.626;2023-08-30T02:48:10;15.20;88.50
13332;DHT22;6735;51.456;12.626;2023-08-30T02:50:36;15.20;88.40
13332;DHT22;6735;51.456;12.626;2023-08-30T02:53:01;15.20;88.40
13332;DHT22;6735;51.456;12.626;2023-08-30T02:55:27;15.20;88.40
13332;DHT22;6735;51.456;12.626;2023-08-30T02:57:52;15.30;88.40
13332;DHT22;6735;51.456;12.626;2023-08-30T03:00:18;15.30;88.30
13332;DHT22;6735;51.456;12.626;2023-08-30T03:02:44;15.20;88.30
13332;DHT22;6735;51.456;12.626;2023-08-30T03:05:09;15.20;88.30
13332;DHT22;6735;51.456;12.626;2023-08-30T03:07:35;15.20;88.20
13332;DHT22;6735;51.456;12.626;2023-08-30T03:10:00;15.20;88.20
13332;DHT22;6735;51.456;12.626;2023-08-30T03:12:26;15.20;88.30
13332;DHT22;6735;51.456;12.626;2023-08-30T03:14:51;15.30;88.30
13332;DHT22;6735;51.456;12.626;2023-08-30T03:17:17;15.30;88.30
13332;DHT22;6735;51.456;12.626;2023-08-30T03:19:42;15.30;88.20
13332;DHT22;6735;51.456;12.626;2023-08-30T03:22:08;15.30;88.30
13332;DHT22;6735;51.456;12.626;2023-08-30T03:24:33;15.30;88.30
13332;DHT22;6735;51.456;12.626;2023-08-30T03:27:00;15.30;88.20
13332;DHT22;6735;51.456;12.626;2023-08-30T03:29:25;15.30;88.20
13332;DHT22;6735;51.456;12.626;2023-08-30T03:31:51;15.30;88.10
13332;DHT22;6735;51.456;12.626;2023-08-30T03:34:16;15.30;88.20
13332;DHT22;6735;51.456;12.626;2023-08-30T03:36:42;15.30;88.10
13332;DHT22;6735;51.456;12.626;2023-08-30T03:39:09;15.30;88.20
13332;DHT22;6735;51.456;12.626;2023-08-30T03:41:35;15.20;88.20
13332;DHT22;6735;51.456;12.626;2023-08-30T03:44:00;15.20;88.20
13332;DHT22;6735;51.456;12.626;2023-08-30T03:46:26;15.30;88.20
13332;DHT22;6735;51.456;12.626;2023-08-30T03:48:51;15.30;88.30
13332;DHT22;6735;51.456;12.626;2023-08-30T03:51:17;15.30;88.30
13332;DHT22;6735;51.456;12.626;2023-08-30T03:53:43;15.30;88.20
13332;DHT22;6735;51.456;12.626;2023-08-30T03:56:08;15.30;88.20
13332;DHT22;6735;51.456;12.626;2023-08-30T03:58:34;15.30;88.20
13332;DHT22;6735;51.456;12.626;2023-08-30T04:00:59;15.20;88.30
13332;DHT22;6735;51.456;12.626;2023-08-30T04:03:25;15.20;88.40
13332;DHT22;6735;51.456;12.626;2023-08-30T04:05:56;15.20;88.50
13332;DHT22;6735;51.456;12.626;2023-08-30T04:08:22;15.20;88.50
13332;DHT22;6735;51.456;12.626;2023-08-30T04:10:51;15.20;88.60
13332;DHT22;6735;51.456;12.626;2023-08-30T04:13:17;15.20;88.60
13332;DHT22;6735;51.456;12.626;2023-08-30T04:15:42;15.20;88.60
13332;DHT22;6735;51.456;12.626;2023-08-30T04:18:08;15.20;88.60
13332;DHT22;6735;51.456;12.626;2023-08-30T04:20:33;15.20;88.60
13332;DHT22;6735;51.456;12.626;2023-08-30T04:23:00;15.20;88.60
13332;DHT22;6735;51.456;12.626;2023-08-30T04:25:30;15.20;88.70
13332;DHT22;6735;51.456;12.626;2023-08-30T04:27:56;15.20;88.70
13332;DHT22;6735;51.456;12.626;2023-08-30T04:30:22;15.20;88.70
13332;DHT22;6735;51.456;12.626;2023-08-30T04:32:47;15.20;88.70
13332;DHT22;6735;51.456;12.626;2023-08-30T04:35:13;15.20;88.70
13332;DHT22;6735;51.456;12.626;2023-08-30T04:37:39;15.20;88.70
13332;DHT22;6735;51.456;12.626;2023-08-30T04:40:06;15.20;88.70
13332;DHT22;6735;51.456;12.626;2023-08-30T04:42:33;15.20;88.70
13332;DHT22;6735;51.456;12.626;2023-08-30T04:44:59;15.20;88.60
13332;DHT22;6735;51.456;12.626;2023-08-30T04:47:27;15.20;88.60
13332;DHT22;6735;51.456;12.626;2023-08-30T04:49:53;15.30;88.60
13332;DHT22;6735;51.456;12.626;2023-08-30T04:52:18;15.30;88.60
13332;DHT22;6735;51.456;12.626;2023-08-30T04:54:44;15.30;88.60
13332;DHT22;6735;51.456;12.626;2023-08-30T04:57:11;15.30;88.50
13332;DHT22;6735;51.456;12.626;2023-08-30T04:59:40;15.30;88.50
13332;DHT22;6735;51.456;12.626;2023-08-30T05:02:06;15.30;88.50
13332;DHT22;6735;51.456;12.626;2023-08-30T05:04:32;15.30;88.40
13332;DHT22;6735;51.456;12.626;2023-08-30T05:06:57;15.40;88.40
13332;DHT22;6735;51.456;12.626;2023-08-30T05:09:23;15.40;88.30
13332;DHT22;6735;51.456;12.626;2023-08-30T05:11:50;15.40;88.30
13332;DHT22;6735;51.456;12.626;2023-08-30T05:14:16;15.40;88.30
13332;DHT22;6735;51.456;12.626;2023-08-30T05:16:41;15.50;88.30
13332;DHT22;6735;51.456;12.626;2023-08-30T05:19:07;15.50;88.10
13332;DHT22;6735;51.456;12.626;2023-08-30T05:21:32;15.50;88.10
13332;DHT22;6735;51.456;12.626;2023-08-30T05:23:58;15.50;88.00
13332;DHT22;6735;51.456;12.626;2023-08-30T05:26:23;15.60;88.00
13332;DHT22;6735;51.456;12.626;2023-08-30T05:28:49;15.60;88.00
13332;DHT22;6735;51.456;12.626;2023-08-30T05:31:14;15.60;87.80
13332;DHT22;6735;51.456;12.626;2023-08-30T05:33:40;15.60;87.80
13332;DHT22;6735;51.456;12.626;2023-08-30T05:36:05;15.60;87.80
13332;DHT22;6735;51.456;12.626;2023-08-30T05:38:31;15.70;87.70
13332;DHT22;6735;51.456;12.626;2023-08-30T05:40:56;15.70;87.60
13332;DHT22;6735;51.456;12.626;2023-08-30T05:43:22;15.70;87.50
13332;DHT22;6735;51.456;12.626;2023-08-30T05:45:47;15.70;87.40
13332;DHT22;6735;51.456;12.626;2023-08-30T05:48:13;15.70;87.30
13332;DHT22;6735;51.456;12.626;2023-08-30T05:50:38;15.70;87.30
13332;DHT22;6735;51.456;12.626;2023-08-30T05:53:06;15.70;87.20
13332;DHT22;6735;51.456;12.626;2023-08-30T05:55:31;15.70;87.10
13332;DHT22;6735;51.456;12.626;2023-08-30T05:57:57;15.70;87.30
13332;DHT22;6735;51.456;12.626;2023-08-30T06:00:22;15.80;87.10
13332;DHT22;6735;51.456;12.626;2023-08-30T06:02:48;15.90;87.10
13332;DHT22;6735;51.456;12.626;2023-08-30T06:05:16;15.90;86.90
13332;DHT22;6735;51.456;12.626;2023-08-30T06:07:42;15.90;86.60
13332;DHT22;6735;51.456;12.626;2023-08-30T06:10:07;15.90;86.60
13332;DHT22;6735;51.456;12.626;2023-08-30T06:12:33;16.00;86.40
13332;DHT22;6735;51.456;12.626;2023-08-30T06:14:59;16.10;86.20
13332;DHT22;6735;51.456;12.626;2023-08-30T06:17:24;16.10;86.00
13332;DHT22;6735;51.456;12.626;2023-08-30T06:19:49;16.10;85.60
13332;DHT22;6735;51.456;12.626;2023-08-30T06:22:15;16.10;85.50
13332;DHT22;6735;51.456;12.626;2023-08-30T06:24:41;16.20;85.60
13332;DHT22;6735;51.456;12.626;2023-08-30T06:27:06;16.20;85.30
13332;DHT22;6735;51.456;12.626;2023-08-30T06:29:32;16.20;85.10
13332;DHT22;6735;51.456;12.626;2023-08-30T06:31:58;16.30;85.10
13332;DHT22;6735;51.456;12.626;2023-08-30T06:34:24;16.30;85.10
13332;DHT22;6735;51.456;12.626;2023-08-30T06:36:49;16.40;85.20
13332;DHT22;6735;51.456;12.626;2023-08-30T06:39:15;16.40;84.60
13332;DHT22;6735;51.456;12.626;2023-08-30T06:41:40;16.50;84.70
13332;DHT22;6735;51.456;12.626;2023-08-30T06:44:06;16.50;84.40
13332;DHT22;6735;51.456;12.626;2023-08-30T06:46:31;16.40;84.00
13332;DHT22;6735;51.456;12.626;2023-08-30T06:48:57;16.50;84.20
13332;DHT22;6735;51.456;12.626;2023-08-30T06:51:22;16.60;84.20
13332;DHT22;6735;51.456;12.626;2023-08-30T06:53:48;16.60;83.70
13332;DHT22;6735;51.456;12.626;2023-08-30T06:56:13;16.70;83.70
13332;DHT22;6735;51.456;12.626;2023-08-30T06:58:39;16.70;83.30
13332;DHT22;6735;51.456;12.626;2023-08-30T07:01:05;16.80;82.90
13332;DHT22;6735;51.456;12.626;2023-08-30T07:03:31;17.00;82.90
13332;DHT22;6735;51.456;12.626;2023-08-30T07:05:56;17.10;82.50
13332;DHT22;6735;51.456;12.626;2023-08-30T07:08:22;17.30;81.90
13332;DHT22;6735;51.456;12.626;2023-08-30T07:10:47;17.40;81.50
13332;DHT22;6735;51.456;12.626;2023-08-30T07:13:13;17.60;81.30
13332;DHT22;6735;51.456;12.626;2023-08-30T07:15:39;17.70;80.70
13332;DHT22;6735;51.456;12.626;2023-08-30T07:18:06;17.90;80.40
13332;DHT22;6735;51.456;12.626;2023-08-30T07:20:31;18.40;79.20
13332;DHT22;6735;51.456;12.626;2023-08-30T07:22:57;19.10;77.40
13332;DHT22;6735;51.456;12.626;2023-08-30T07:25:22;19.60;76.30
13332;DHT22;6735;51.456;12.626;2023-08-30T07:27:49;20.20;75.50
13332;DHT22;6735;51.456;12.626;2023-08-30T07:30:15;20.70;74.00
13332;DHT22;6735;51.456;12.626;2023-08-30T07:32:40;21.20;73.50
13332;DHT22;6735;51.456;12.626;2023-08-30T07:35:06;21.90;72.90
13332;DHT22;6735;51.456;12.626;2023-08-30T07:37:32;22.30;71.80
13332;DHT22;6735;51.456;12.626;2023-08-30T07:39:57;22.50;70.90
13332;DHT22;6735;51.456;12.626;2023-08-30T07:42:23;22.70;69.40
13332;DHT22;6735;51.456;12.626;2023-08-30T07:44:49;23.00;69.60
13332;DHT22;6735;51.456;12.626;2023-08-30T07:47:14;22.90;68.80
13332;DHT22;6735;51.456;12.626;2023-08-30T07:49:40;23.00;67.80
13332;DHT22;6735;51.456;12.626;2023-08-30T07:52:06;23.20;66.90
13332;DHT22;6735;51.456;12.626;2023-08-30T07:54:33;23.40;65.50
13332;DHT22;6735;51.456;12.626;2023-08-30T07:56:59;23.20;65.80
13332;DHT22;6735;51.456;12.626;2023-08-30T07:59:24;23.10;66.30
13332;DHT22;6735;51.456;12.626;2023-08-30T08:01:50;22.90;65.90
13332;DHT22;6735;51.456;12.626;2023-08-30T08:04:16;22.70;66.70
13332;DHT22;6735;51.456;12.626;2023-08-30T08:06:42;23.00;66.20
13332;DHT22;6735;51.456;12.626;2023-08-30T08:09:07;23.20;65.50
13332;DHT22;6735;51.456;12.626;2023-08-30T08:11:33;23.30;65.20
13332;DHT22;6735;51.456;12.626;2023-08-30T08:13:59;23.20;63.20
13332;DHT22;6735;51.456;12.626;2023-08-30T08:16:24;23.00;65.20
13332;DHT22;6735;51.456;12.626;2023-08-30T08:18:50;22.90;65.30
13332;DHT22;6735;51.456;12.626;2023-08-30T08:21:17;22.90;65.20
13332;DHT22;6735;51.456;12.626;2023-08-30T08:23:43;22.80;64.70
13332;DHT22;6735;51.456;12.626;2023-08-30T08:26:08;22.90;64.10
13332;DHT22;6735;51.456;12.626;2023-08-30T08:28:34;22.90;63.80
13332;DHT22;6735;51.456;12.626;2023-08-30T08:31:00;23.10;63.60
13332;DHT22;6735;51.456;12.626;2023-08-30T08:33:25;23.20;63.20
13332;DHT22;6735;51.456;12.626;2023-08-30T08:35:51;23.40;62.30
13332;DHT22;6735;51.456;12.626;2023-08-30T08:38:16;23.50;62.10
13332;DHT22;6735;51.456;12.626;2023-08-30T08:40:42;23.60;61.00
13332;DHT22;6735;51.456;12.626;2023-08-30T08:43:10;24.00;61.00
13332;DHT22;6735;51.456;12.626;2023-08-30T08:45:37;24.40;59.70
13332;DHT22;6735;51.456;12.626;2023-08-30T08:48:04;24.60;59.60
13332;DHT22;6735;51.456;12.626;2023-08-30T08:50:30;24.70;58.60
13332;DHT22;6735;51.456;12.626;2023-08-30T08:52:56;25.10;58.00
13332;DHT22;6735;51.456;12.626;2023-08-30T08:55:22;25.20;56.50
13332;DHT22;6735;51.456;12.626;2023-08-30T08:57:48;25.10;56.40
13332;DHT22;6735;51.456;12.626;2023-08-30T09:00:14;25.20;56.00
13332;DHT22;6735;51.456;12.626;2023-08-30T09:02:42;25.30;55.50
13332;DHT22;6735;51.456;12.626;2023-08-30T09:05:08;25.70;53.90
13332;DHT22;6735;51.456;12.626;2023-08-30T09:07:34;25.90;53.30
13332;DHT22;6735;51.456;12.626;2023-08-30T09:10:01;26.00;52.90
13332;DHT22;6735;51.456;12.626;2023-08-30T09:12:26;25.20;54.30
13332;DHT22;6735;51.456;12.626;2023-08-30T09:14:56;25.60;53.00
13332;DHT22;6735;51.456;12.626;2023-08-30T09:17:21;25.30;53.20
13332;DHT22;6735;51.456;12.626;2023-08-30T09:19:47;25.30;53.60
13332;DHT22;6735;51.456;12.626;2023-08-30T09:22:13;25.10;54.30
13332;DHT22;6735;51.456;12.626;2023-08-30T09:24:39;24.80;53.80
13332;DHT22;6735;51.456;12.626;2023-08-30T09:27:05;24.80;53.10
13332;DHT22;6735;51.456;12.626;2023-08-30T09:29:31;24.50;51.70
13332;DHT22;6735;51.456;12.626;2023-08-30T09:31:57;24.90;51.10
13332;DHT22;6735;51.456;12.626;2023-08-30T09:34:26;25.20;49.70
13332;DHT22;6735;51.456;12.626;2023-08-30T09:36:52;25.00;50.60
13332;DHT22;6735;51.456;12.626;2023-08-30T09:39:18;24.70;50.50
13332;DHT22;6735;51.456;12.626;2023-08-30T09:41:46;24.60;50.00
13332;DHT22;6735;51.456;12.626;2023-08-30T09:44:12;25.00;49.40
13332;DHT22;6735;51.456;12.626;2023-08-30T09:46:52;25.20;49.10
13332;DHT22;6735;51.456;12.626;2023-08-30T09:49:22;25.40;46.10
13332;DHT22;6735;51.456;12.626;2023-08-30T09:51:49;25.60;47.60
13332;DHT22;6735;51.456;12.626;2023-08-30T09:54:20;25.50;48.00
13332;DHT22;6735;51.456;12.626;2023-08-30T09:56:46;25.50;47.40
13332;DHT22;6735;51.456;12.626;2023-08-30T09:59:13;25.60;47.30
13332;DHT22;6735;51.456;12.626;2023-08-30T10:01:41;25.90;46.60
13332;DHT22;6735;51.456;12.626;2023-08-30T10:04:10;26.30;45.20
13332;DHT22;6735;51.456;12.626;2023-08-30T10:06:39;26.70;44.20
13332;DHT22;6735;51.456;12.626;2023-08-30T10:09:07;27.10;43.60
13332;DHT22;6735;51.456;12.626;2023-08-30T10:11:34;27.20;43.60
13332;DHT22;6735;51.456;12.626;2023-08-30T10:14:02;27.00;43.20
13332;DHT22;6735;51.456;12.626;2023-08-30T10:16:32;27.00;43.00
13332;DHT22;6735;51.456;12.626;2023-08-30T10:19:02;27.20;42.60
13332;DHT22;6735;51.456;12.626;2023-08-30T10:21:29;27.10;43.00
13332;DHT22;6735;51.456;12.626;2023-08-30T10:23:56;27.00;42.50
13332;DHT22;6735;51.456;12.626;2023-08-30T10:26:24;27.00;42.60
13332;DHT22;6735;51.456;12.626;2023-08-30T10:28:53;26.80;42.40
13332;DHT22;6735;51.456;12.626;2023-08-30T10:31:19;26.30;42.90
13332;DHT22;6735;51.456;12.626;2023-08-30T10:33:53;26.40;42.70
13332;DHT22;6735;51.456;12.626;2023-08-30T10:36:25;26.30;41.40
13332;DHT22;6735;51.456;12.626;2023-08-30T10:38:53;26.60;41.10
13332;DHT22;6735;51.456;12.626;2023-08-30T10:41:23;26.60;41.80
13332;DHT22;6735;51.456;12.626;2023-08-30T10:43:51;26.70;41.40
13332;DHT22;6735;51.456;12.626;2023-08-30T10:46:28;26.40;42.10
13332;DHT22;6735;51.456;12.626;2023-08-30T10:48:54;26.10;42.20
13332;DHT22;6735;51.456;12.626;2023-08-30T10:51:21;25.80;41.80
13332;DHT22;6735;51.456;12.626;2023-08-30T10:53:59;25.90;41.70
13332;DHT22;6735;51.456;12.626;2023-08-30T10:56:31;25.80;40.70
13332;DHT22;6735;51.456;12.626;2023-08-30T10:58:59;25.80;41.60
13332;DHT22;6735;51.456;12.626;2023-08-30T11:01:27;25.50;41.90
13332;DHT22;6735;51.456;12.626;2023-08-30T11:03:54;25.60;42.10
13332;DHT22;6735;51.456;12.626;2023-08-30T11:06:21;25.30;42.60
13332;DHT22;6735;51.456;12.626;2023-08-30T11:08:47;25.60;42.00
13332;DHT22;6735;51.456;12.626;2023-08-30T11:11:14;25.90;41.30
13332;DHT22;6735;51.456;12.626;2023-08-30T11:13:40;26.10;41.00
13332;DHT22;6735;51.456;12.626;2023-08-30T11:16:05;26.20;40.80
13332;DHT22;6735;51.456;12.626;2023-08-30T11:18:36;26.40;40.40
13332;DHT22;6735;51.456;12.626;2023-08-30T11:21:02;26.50;39.90
13332;DHT22;6735;51.456;12.626;2023-08-30T11:23:29;26.20;40.60
13332;DHT22;6735;51.456;12.626;2023-08-30T11:25:54;26.20;40.90
13332;DHT22;6735;51.456;12.626;2023-08-30T11:28:26;26.50;40.60
13332;DHT22;6735;51.456;12.626;2023-08-30T11:30:55;26.60;40.20
13332;DHT22;6735;51.456;12.626;2023-08-30T11:33:21;26.70;38.90
13332;DHT22;6735;51.456;12.626;2023-08-30T11:35:49;26.70;39.90
13332;DHT22;6735;51.456;12.626;2023-08-30T11:38:15;26.80;39.60
13332;DHT22;6735;51.456;12.626;2023-08-30T11:40:41;27.10;39.60
13332;DHT22;6735;51.456;12.626;2023-08-30T11:43:07;26.80;38.90
13332;DHT22;6735;51.456;12.626;2023-08-30T11:45:33;26.40;40.40
13332;DHT22;6735;51.456;12.626;2023-08-30T11:48:02;26.20;40.60
13332;DHT22;6735;51.456;12.626;2023-08-30T11:50:28;25.80;41.00
13332;DHT22;6735;51.456;12.626;2023-08-30T11:52:54;25.20;41.90
13332;DHT22;6735;51.456;12.626;2023-08-30T11:55:23;25.30;41.60
13332;DHT22;6735;51.456;12.626;2023-08-30T11:57:49;25.70;41.20
13332;DHT22;6735;51.456;12.626;2023-08-30T12:00:18;26.00;40.40
13332;DHT22;6735;51.456;12.626;2023-08-30T12:02:45;25.90;40.50
13332;DHT22;6735;51.456;12.626;2023-08-30T12:05:12;25.70;40.40
13332;DHT22;6735;51.456;12.626;2023-08-30T12:07:38;25.60;41.00
13332;DHT22;6735;51.456;12.626;2023-08-30T12:10:09;25.60;41.30
13332;DHT22;6735;51.456;12.626;2023-08-30T12:12:35;25.70;41.10
13332;DHT22;6735;51.456;12.626;2023-08-30T12:15:10;25.70;41.20
13332;DHT22;6735;51.456;12.626;2023-08-30T12:17:36;25.70;40.70
13332;DHT22;6735;51.456;12.626;2023-08-30T12:20:02;25.50;41.50
13332;DHT22;6735;51.456;12.626;2023-08-30T12:22:38;25.30;41.80
13332;DHT22;6735;51.456;12.626;2023-08-30T12:25:25;25.50;41.70
13332;DHT22;6735;51.456;12.626;2023-08-30T12:27:51;25.60;41.60
13332;DHT22;6735;51.456;12.626;2023-08-30T12:30:18;25.70;41.10
13332;DHT22;6735;51.456;12.626;2023-08-30T12:32:45;25.70;41.30
13332;DHT22;6735;51.456;12.626;2023-08-30T12:35:11;25.80;41.00
13332;DHT22;6735;51.456;12.626;2023-08-30T12:37:36;25.80;40.70
13332;DHT22;6735;51.456;12.626;2023-08-30T12:40:02;25.70;40.70
13332;DHT22;6735;51.456;12.626;2023-08-30T12:42:28;25.80;40.50
13332;DHT22;6735;51.456;12.626;2023-08-30T12:44:54;25.70;40.00
13332;DHT22;6735;51.456;12.626;2023-08-30T12:47:20;25.80;40.10
13332;DHT22;6735;51.456;12.626;2023-08-30T12:49:46;25.80;39.40
13332;DHT22;6735;51.456;12.626;2023-08-30T12:52:11;25.80;39.40
13332;DHT22;6735;51.456;12.626;2023-08-30T12:54:37;25.90;40.00
13332;DHT22;6735;51.456;12.626;2023-08-30T12:57:02;25.60;40.00
13332;DHT22;6735;51.456;12.626;2023-08-30T12:59:28;25.50;39.70
13332;DHT22;6735;51.456;12.626;2023-08-30T13:01:53;25.20;40.10
13332;DHT22;6735;51.456;12.626;2023-08-30T13:04:19;25.10;40.10
13332;DHT22;6735;51.456;12.626;2023-08-30T13:06:45;25.00;40.30
13332;DHT22;6735;51.456;12.626;2023-08-30T13:09:11;25.20;40.00
13332;DHT22;6735;51.456;12.626;2023-08-30T13:11:36;25.20;39.90
13332;DHT22;6735;51.456;12.626;2023-08-30T13:14:02;24.90;40.10
13332;DHT22;6735;51.456;12.626;2023-08-30T13:16:27;24.70;40.30
13332;DHT22;6735;51.456;12.626;2023-08-30T13:18:54;24.60;40.30
13332;DHT22;6735;51.456;12.626;2023-08-30T13:21:19;24.60;40.30
13332;DHT22;6735;51.456;12.626;2023-08-30T13:23:45;24.50;40.90
13332;DHT22;6735;51.456;12.626;2023-08-30T13:26:10;24.40;41.10
13332;DHT22;6735;51.456;12.626;2023-08-30T13:28:36;24.30;41.70
13332;DHT22;6735;51.456;12.626;2023-08-30T13:31:01;24.20;42.00
13332;DHT22;6735;51.456;12.626;2023-08-30T13:33:27;24.20;41.80
13332;DHT22;6735;51.456;12.626;2023-08-30T13:35:53;24.20;41.90
13332;DHT22;6735;51.456;12.626;2023-08-30T13:38:19;24.40;41.80
13332;DHT22;6735;51.456;12.626;2023-08-30T13:40:45;24.50;41.70
13332;DHT22;6735;51.456;12.626;2023-08-30T13:43:11;24.50;41.90
13332;DHT22;6735;51.456;12.626;2023-08-30T13:45:36;24.60;41.70
13332;DHT22;6735;51.456;12.626;2023-08-30T13:48:02;24.70;41.70
13332;DHT22;6735;51.456;12.626;2023-08-30T13:50:27;24.60;41.60
13332;DHT22;6735;51.456;12.626;2023-08-30T13:52:58;24.60;41.50
13332;DHT22;6735;51.456;12.626;2023-08-30T13:55:24;24.50;42.00
13332;DHT22;6735;51.456;12.626;2023-08-30T13:57:49;24.40;42.00
13332;DHT22;6735;51.456;12.626;2023-08-30T14:00:16;24.40;42.10
13332;DHT22;6735;51.456;12.626;2023-08-30T14:02:41;24.40;42.20
13332;DHT22;6735;51.456;12.626;2023-08-30T14:05:07;24.40;42.60
13332;DHT22;6735;51.456;12.626;2023-08-30T14:07:33;24.30;42.70
13332;DHT22;6735;51.456;12.626;2023-08-30T14:09:59;24.20;42.70
13332;DHT22;6735;51.456;12.626;2023-08-30T14:12:25;24.20;42.80
13332;DHT22;6735;51.456;12.626;2023-08-30T14:14:50;24.20;42.70
13332;DHT22;6735;51.456;12.626;2023-08-30T14:17:17;23.90;43.10
13332;DHT22;6735;51.456;12.626;2023-08-30T14:19:42;23.80;43.50
13332;DHT22;6735;51.456;12.626;2023-08-30T14:22:08;23.70;43.60
13332;DHT22;6735;51.456;12.626;2023-08-30T14:24:33;23.60;44.00
13332;DHT22;6735;51.456;12.626;2023-08-30T14:27:03;23.70;44.30
13332;DHT22;6735;51.456;12.626;2023-08-30T14:29:28;23.70;43.90
13332;DHT22;6735;51.456;12.626;2023-08-30T14:31:54;23.70;44.30
13332;DHT22;6735;51.456;12.626;2023-08-30T14:34:20;23.70;44.20
13332;DHT22;6735;51.456;12.626;2023-08-30T14:36:45;23.70;44.60
13332;DHT22;6735;51.456;12.626;2023-08-30T14:39:13;23.70;44.40
13332;DHT22;6735;51.456;12.626;2023-08-30T14:41:38;23.80;44.50
13332;DHT22;6735;51.456;12.626;2023-08-30T14:44:04;23.70;44.40
13332;DHT22;6735;51.456;12.626;2023-08-30T14:46:30;23.70;44.20
13332;DHT22;6735;51.456;12.626;2023-08-30T14:48:55;23.80;44.60
13332;DHT22;6735;51.456;12.626;2023-08-30T14:51:21;23.80;44.20
13332;DHT22;6735;51.456;12.626;2023-08-30T14:53:46;23.80;44.40
13332;DHT22;6735;51.456;12.626;2023-08-30T14:56:12;23.80;44.50
13332;DHT22;6735;51.456;12.626;2023-08-30T14:58:37;23.70;44.20
13332;DHT22;6735;51.456;12.626;2023-08-30T15:01:04;23.70;44.10
13332;DHT22;6735;51.456;12.626;2023-08-30T15:03:30;23.60;44.20
13332;DHT22;6735;51.456;12.626;2023-08-30T15:05:56;23.60;44.70
13332;DHT22;6735;51.456;12.626;2023-08-30T15:08:23;23.60;44.80
13332;DHT22;6735;51.456;12.626;2023-08-30T15:10:49;23.60;44.40
13332;DHT22;6735;51.456;12.626;2023-08-30T15:13:14;23.60;44.00
13332;DHT22;6735;51.456;12.626;2023-08-30T15:15:40;23.70;44.10
13332;DHT22;6735;51.456;12.626;2023-08-30T15:18:05;23.50;45.00
13332;DHT22;6735;51.456;12.626;2023-08-30T15:20:31;23.50;44.90
13332;DHT22;6735;51.456;12.626;2023-08-30T15:22:56;23.50;44.80
13332;DHT22;6735;51.456;12.626;2023-08-30T15:25:24;23.30;45.20